Time,TemperatureF,DewpointF,PressureIn,WindDirection,WindDirectionDegrees,WindSpeedMPH,WindSpeedGustMPH,Humidity,HourlyPrecipIn,Conditions,Clouds,dailyrainin,SolarRadiationWatts/m^2,SoftwareType,DateUTC
2013-02-26 00:00:00,28.8,21.6,30.17,East,82,3.0,4.6,74,0.00,FEW,,0.04,0.0,WeatherDisplay:10.37,2013-02-26 05:00:00,
2013-02-26 00:05:00,28.8,21.6,30.17,ENE,77,3.5,5.8,74,0.00,RA,,0.00,0.0,WeatherDisplay:10.37,2013-02-26 05:05:00,
2013-02-26 00:10:00,29.0,21.7,30.16,ENE,73,3.0,6.0,74,0.00,FEW,,0.00,0.0,WeatherDisplay:10.37,2013-02-26 05:10:00,
2013-02-26 00:15:00,29.0,21.7,30.16,ENE,76,2.9,4.6,74,0.00,CLR,,0.00,0.0,WeatherDisplay:10.37,2013-02-26 05:15:00,
2013-02-26 00:20:00,28.8,21.6,30.16,ENE,66,2.9,4.6,74,0.00,CLR,,0.00,0.0,WeatherDisplay:10.37,2013-02-26 05:20:00,
2013-02-26 00:25:00,28.8,21.6,30.16,East,88,3.5,6.0,74,0.00,CLR,,0.00,0.0,WeatherDisplay:10.37,2013-02-26 05:25:00,
2013-02-26 00:30:00,28.7,21.5,30.16,ENE,76,3.4,5.0,74,0.00,CLR,,0.00,0.0,WeatherDisplay:10.37,2013-02-26 05:30:00,
2013-02-26 00:35:00,28.7,21.8,30.16,East,87,2.6,6.0,75,0.00,CLR,,0.00,0.0,WeatherDisplay:10.37,2013-02-26 05:35:00,
2013-02-26 00:40:00,28.7,21.8,30.16,East,92,4.3,4.6,75,0.00,CLR,,0.00,0.0,WeatherDisplay:10.37,2013-02-26 05:40:00,
2013-02-26 00:45:00,28.6,21.7,30.15,ENE,62,3.6,4.0,75,0.00,CLR,,0.00,0.0,WeatherDisplay:10.37,2013-02-26 05:45:00,
2013-02-26 00:50:00,28.7,21.8,30.15,ENE,78,2.7,3.5,75,0.00,CLR,,0.00,0.0,WeatherDisplay:10.37,2013-02-26 05:50:00,
2013-02-26 00:55:00,28.7,21.8,30.15,East,79,2.2,3.5,75,0.00,CLR,,0.00,0.0,WeatherDisplay:10.37,2013-02-26 05:55:00,
2013-02-26 01:00:00,28.6,21.7,30.15,East,82,2.7,4.6,75,0.00,CLR,,0.00,0.0,WeatherDisplay:10.37,2013-02-26 06:00:00,
2013-02-26 01:05:00,28.6,21.7,30.14,ENE,65,2.8,4.6,75,0.00,CLR,,0.00,0.0,WeatherDisplay:10.37,2013-02-26 06:05:00,
2013-02-26 01:10:00,28.5,21.9,30.14,ENE,78,1.5,3.0,76,0.00,CLR,,0.00,0.0,WeatherDisplay:10.37,2013-02-26 06:10:00,
2013-02-26 01:15:00,28.5,21.9,30.14,East,79,3.0,4.6,76,0.00,FEW,,0.00,0.0,WeatherDisplay:10.37,2013-02-26 06:15:00,
2013-02-26 01:20:00,28.5,21.9,30.14,ENE,71,2.0,4.6,76,0.00,FEW,,0.00,0.0,WeatherDisplay:10.37,2013-02-26 06:20:00,
2013-02-26 01:25:00,28.5,22.2,30.14,ENE,71,2.8,4.0,77,0.00,FEW,,0.00,0.0,WeatherDisplay:10.37,2013-02-26 06:25:00,
2013-02-26 01:30:00,28.5,22.2,30.14,ENE,65,1.4,3.5,77,0.00,FEW,,0.00,0.0,WeatherDisplay:10.37,2013-02-26 06:30:00,
2013-02-26 01:35:00,28.6,22.0,30.14,East,92,4.8,8.1,76,0.00,FEW,,0.00,0.0,WeatherDisplay:10.37,2013-02-26 06:35:00,
2013-02-26 01:40:00,28.7,22.1,30.14,ENE,74,2.3,4.0,76,0.00,FEW,,0.00,0.0,WeatherDisplay:10.37,2013-02-26 06:40:00,
2013-02-26 01:45:00,28.7,22.1,30.14,ENE,73,1.4,3.5,76,0.00,FEW,,0.00,0.0,WeatherDisplay:10.37,2013-02-26 06:45:00,
2013-02-26 01:50:00,28.7,22.1,30.15,ENE,74,3.8,5.8,76,0.00,FEW,,0.00,0.0,WeatherDisplay:10.37,2013-02-26 06:50:00,
2013-02-26 01:55:00,28.8,22.2,30.15,ENE,76,1.5,3.5,76,0.00,FEW,,0.00,0.0,WeatherDisplay:10.37,2013-02-26 06:55:00,
2013-02-26 02:00:00,28.8,22.2,30.15,East,84,2.4,3.5,76,0.00,FEW,,0.00,0.0,WeatherDisplay:10.37,2013-02-26 07:00:00,
2013-02-26 02:05:00,28.8,22.2,30.15,ENE,74,3.9,6.9,76,0.00,FEW,,0.00,0.0,WeatherDisplay:10.37,2013-02-26 07:05:00,
2013-02-26 02:10:00,28.8,22.2,30.15,NE,53,1.8,3.5,76,0.00,FEW,,0.00,0.0,WeatherDisplay:10.37,2013-02-26 07:10:00,
2013-02-26 02:15:00,28.8,22.2,30.14,ENE,78,3.1,4.6,76,0.00,FEW,,0.00,0.0,WeatherDisplay:10.37,2013-02-26 07:15:00,
2013-02-26 02:20:00,28.9,22.3,30.14,ENE,58,1.5,3.5,76,0.00,FEW,,0.00,0.0,WeatherDisplay:10.37,2013-02-26 07:20:00,
2013-02-26 02:25:00,28.9,22.3,30.14,East,79,3.5,5.0,76,0.00,FEW,,0.00,0.0,WeatherDisplay:10.37,2013-02-26 07:25:00,
2013-02-26 02:30:00,29.0,22.4,30.14,East,86,2.3,5.0,76,0.00,FEW,,0.00,0.0,WeatherDisplay:10.37,2013-02-26 07:30:00,
2013-02-26 02:35:00,29.0,22.4,30.13,NNE,30,1.6,3.5,76,0.00,FEW,,0.00,0.0,WeatherDisplay:10.37,2013-02-26 07:35:00,
2013-02-26 02:40:00,28.9,22.6,30.13,NE,41,2.1,3.5,77,0.00,FEW,,0.00,0.0,WeatherDisplay:10.37,2013-02-26 07:40:00,
2013-02-26 02:45:00,28.9,22.6,30.13,ENE,61,1.7,3.5,77,0.00,FEW,,0.00,0.0,WeatherDisplay:10.37,2013-02-26 07:45:00,
2013-02-26 02:50:00,28.9,22.6,30.12,ENE,59,2.5,4.0,77,0.00,FEW,,0.00,0.0,WeatherDisplay:10.37,2013-02-26 07:50:00,
2013-02-26 02:55:00,28.8,22.8,30.13,NNE,24,2.5,5.0,78,0.00,FEW,,0.00,0.0,WeatherDisplay:10.37,2013-02-26 07:55:00,
2013-02-26 03:00:00,28.8,22.8,30.12,ENE,74,3.4,4.6,78,0.00,FEW,,0.00,0.0,WeatherDisplay:10.37,2013-02-26 08:00:00,
2013-02-26 03:05:00,28.9,22.9,30.12,East,90,5.3,11.5,78,0.00,FEW,,0.00,0.0,WeatherDisplay:10.37,2013-02-26 08:05:00,
2013-02-26 03:10:00,28.9,22.9,30.12,ENE,72,3.8,9.2,78,0.00,FEW,,0.00,0.0,WeatherDisplay:10.37,2013-02-26 08:10:00,
2013-02-26 03:15:00,28.9,22.9,30.12,NNE,30,5.5,10.4,78,0.00,SCT,,0.00,0.0,WeatherDisplay:10.37,2013-02-26 08:15:00,
2013-02-26 03:20:00,28.8,23.1,30.12,ENE,65,4.9,9.0,79,0.00,SCT,,0.00,0.0,WeatherDisplay:10.37,2013-02-26 08:20:00,
2013-02-26 03:25:00,28.8,23.1,30.11,NE,40,3.6,9.2,79,0.00,SCT,,0.00,0.0,WeatherDisplay:10.37,2013-02-26 08:25:00,
2013-02-26 03:30:00,28.8,23.1,30.11,East,82,6.7,9.0,79,0.00,SCT,,0.00,0.0,WeatherDisplay:10.37,2013-02-26 08:30:00,
2013-02-26 03:35:00,28.8,23.1,30.11,NE,37,4.4,8.1,79,0.00,SCT,,0.00,0.0,WeatherDisplay:10.37,2013-02-26 08:35:00,
2013-02-26 03:40:00,28.7,23.0,30.11,ENE,71,3.5,8.1,79,0.00,SCT,,0.00,0.0,WeatherDisplay:10.37,2013-02-26 08:40:00,
2013-02-26 03:45:00,28.7,23.0,30.10,ENE,57,4.1,10.0,79,0.00,SCT,,0.00,0.0,WeatherDisplay:10.37,2013-02-26 08:45:00,
2013-02-26 03:50:00,28.7,23.0,30.10,NNE,29,5.6,8.1,79,0.00,SCT,,0.00,0.0,WeatherDisplay:10.37,2013-02-26 08:50:00,
2013-02-26 03:55:00,28.7,23.0,30.09,ENE,64,5.1,5.1,79,0.00,SCT,,0.00,0.0,WeatherDisplay:10.37,2013-02-26 08:55:00,
2013-02-26 04:00:00,28.7,23.0,30.08,NE,34,3.1,5.0,79,0.00,SCT,,0.00,0.0,WeatherDisplay:10.37,2013-02-26 09:00:00,
2013-02-26 04:05:00,28.7,23.0,30.08,ENE,76,5.9,10.4,79,0.00,SCT,,0.00,0.0,WeatherDisplay:10.37,2013-02-26 09:05:00,
2013-02-26 04:10:00,28.7,23.0,30.07,ENE,71,6.1,10.4,79,0.00,SCT,,0.00,0.0,WeatherDisplay:10.37,2013-02-26 09:10:00,
2013-02-26 04:15:00,28.7,23.0,30.07,East,86,5.3,8.0,79,0.00,SCT,,0.00,0.0,WeatherDisplay:10.37,2013-02-26 09:15:00,
2013-02-26 04:21:00,28.8,23.1,30.07,ENE,67,4.6,8.1,79,0.00,SCT,,0.00,0.0,WeatherDisplay:10.37,2013-02-26 09:21:00,
2013-02-26 04:26:00,28.8,23.1,30.07,ENE,57,6.4,11.5,79,0.00,SCT,,0.00,0.0,WeatherDisplay:10.37,2013-02-26 09:26:00,
2013-02-26 04:31:00,28.8,23.1,30.07,East,91,5.9,6.9,79,0.00,SCT,,0.00,0.0,WeatherDisplay:10.37,2013-02-26 09:31:00,
2013-02-26 04:36:00,28.8,23.1,30.06,NE,54,4.2,4.6,79,0.00,SCT,,0.00,0.0,WeatherDisplay:10.37,2013-02-26 09:36:00,
2013-02-26 04:41:00,28.9,23.2,30.05,East,94,5.8,9.2,79,0.00,SCT,,0.00,0.0,WeatherDisplay:10.37,2013-02-26 09:41:00,
2013-02-26 04:46:00,29.0,23.3,30.05,NE,49,3.4,6.9,79,0.00,SCT,,0.00,0.0,WeatherDisplay:10.37,2013-02-26 09:46:00,
2013-02-26 04:51:00,29.1,23.4,30.05,East,86,4.6,9.2,79,0.00,SCT,,0.00,0.0,WeatherDisplay:10.37,2013-02-26 09:51:00,
2013-02-26 04:56:00,29.1,23.1,30.05,ENE,76,5.6,10.4,78,0.00,SCT,,0.00,0.0,WeatherDisplay:10.37,2013-02-26 09:56:00,
2013-02-26 05:01:00,29.1,23.1,30.04,NNE,17,3.4,11.5,78,0.00,SCT,,0.00,0.0,WeatherDisplay:10.37,2013-02-26 10:01:00,
2013-02-26 05:06:00,29.1,23.1,30.03,NE,53,6.5,9.0,78,0.00,SCT,,0.00,0.0,WeatherDisplay:10.37,2013-02-26 10:06:00,
2013-02-26 05:11:00,29.1,23.1,30.02,ENE,65,4.7,8.1,78,0.00,SCT,,0.00,0.0,WeatherDisplay:10.37,2013-02-26 10:11:00,
2013-02-26 05:16:00,29.2,23.2,30.02,NE,52,5.5,9.2,78,0.00,OVC,,0.00,0.0,WeatherDisplay:10.37,2013-02-26 10:16:00,
2013-02-26 05:21:00,29.2,23.2,30.02,NE,50,6.7,9.2,78,0.00,OVC,,0.00,0.0,WeatherDisplay:10.37,2013-02-26 10:21:00,
2013-02-26 05:26:00,29.3,23.3,30.02,East,86,5.9,10.4,78,0.00,OVC,,0.00,0.0,WeatherDisplay:10.37,2013-02-26 10:26:00,
2013-02-26 05:31:00,29.3,23.3,30.03,East,80,6.7,10.4,78,0.00,OVC,,0.00,0.0,WeatherDisplay:10.37,2013-02-26 10:31:00,
2013-02-26 05:36:00,29.3,23.3,30.02,ENE,58,4.1,8.1,78,0.00,OVC,,0.00,0.0,WeatherDisplay:10.37,2013-02-26 10:36:00,
2013-02-26 05:41:00,29.3,23.3,30.02,ENE,69,4.5,7.0,78,0.00,OVC,,0.00,0.0,WeatherDisplay:10.37,2013-02-26 10:41:00,
2013-02-26 05:46:00,29.4,23.4,30.02,ENE,71,4.5,9.2,78,0.00,OVC,,0.00,0.0,WeatherDisplay:10.37,2013-02-26 10:46:00,
2013-02-26 05:51:00,29.4,23.1,30.02,ENE,76,5.8,9.2,77,0.00,OVC,,0.00,0.0,WeatherDisplay:10.37,2013-02-26 10:51:00,
2013-02-26 05:56:00,29.4,23.1,30.02,East,87,4.5,5.8,77,0.00,OVC,,0.00,0.0,WeatherDisplay:10.37,2013-02-26 10:56:00,
2013-02-26 06:01:00,29.4,23.1,30.02,East,92,5.0,9.2,77,0.00,OVC,,0.00,0.0,WeatherDisplay:10.37,2013-02-26 11:01:00,
2013-02-26 06:06:00,29.5,23.2,30.02,ENE,78,4.3,11.5,77,0.00,OVC,,0.00,0.0,WeatherDisplay:10.37,2013-02-26 11:06:00,
2013-02-26 06:11:00,29.6,23.3,30.02,ENE,77,6.5,8.0,77,0.00,OVC,,0.00,0.0,WeatherDisplay:10.37,2013-02-26 11:11:00,
2013-02-26 06:16:00,29.6,23.3,30.01,ENE,68,8.0,16.0,77,0.00,CLR,CLR,0.00,0.0,WeatherDisplay:10.37,2013-02-26 11:16:00,
2013-02-26 06:21:00,29.7,23.1,30.01,East,88,6.7,11.5,76,0.00,CLR,,0.00,0.0,WeatherDisplay:10.37,2013-02-26 11:21:00,
2013-02-26 06:26:00,29.7,23.4,30.02,East,80,6.8,8.0,77,0.00,CLR,,0.00,0.0,WeatherDisplay:10.37,2013-02-26 11:26:00,
2013-02-26 06:31:00,29.8,23.5,30.02,East,81,7.9,10.4,77,0.00,CLR,,0.00,0.0,WeatherDisplay:10.37,2013-02-26 11:31:00,
2013-02-26 06:36:00,29.8,23.5,30.02,East,81,5.4,8.1,77,0.00,CLR,,0.00,0.0,WeatherDisplay:10.37,2013-02-26 11:36:00,
2013-02-26 06:41:00,29.8,23.2,30.03,NE,36,5.0,9.0,76,0.00,CLR,,0.00,0.0,WeatherDisplay:10.37,2013-02-26 11:41:00,
2013-02-26 06:46:00,29.8,23.5,30.02,ENE,78,5.9,11.5,77,0.00,CLR,,0.00,0.0,WeatherDisplay:10.37,2013-02-26 11:46:00,
2013-02-26 06:51:00,29.8,23.5,30.02,ENE,70,5.6,10.4,77,0.00,CLR,,0.00,0.0,WeatherDisplay:10.37,2013-02-26 11:51:00,
2013-02-26 06:56:00,29.9,23.6,30.01,East,85,8.3,12.7,77,0.00,CLR,,0.00,0.0,WeatherDisplay:10.37,2013-02-26 11:56:00,
2013-02-26 07:01:00,30.0,23.6,30.00,ENE,74,7.0,15.0,77,0.00,CLR,CLR,0.00,0.0,WeatherDisplay:10.37,2013-02-26 12:01:00,
2013-02-26 07:06:00,30.1,23.4,30.00,ESE,104,8.6,11.5,76,0.00,CLR,,0.00,0.0,WeatherDisplay:10.37,2013-02-26 12:06:00,
2013-02-26 07:11:00,30.2,23.5,30.00,East,86,8.9,13.8,76,0.00,OVC,,0.00,0.0,WeatherDisplay:10.37,2013-02-26 12:11:00,
2013-02-26 07:16:00,30.4,23.7,30.00,NE,47,9.9,18.4,76,0.00,OVC,,0.00,0.0,WeatherDisplay:10.37,2013-02-26 12:16:00,
2013-02-26 07:21:00,30.4,23.7,30.00,East,94,7.3,13.0,76,0.00,OVC,,0.00,0.0,WeatherDisplay:10.37,2013-02-26 12:21:00,
2013-02-26 07:26:00,30.4,23.7,30.00,East,84,5.4,7.0,76,0.00,OVC,,0.00,5.0,WeatherDisplay:10.37,2013-02-26 12:26:00,
2013-02-26 07:31:00,30.4,23.7,30.00,East,94,9.8,16.1,76,0.00,OVC,,0.00,7.0,WeatherDisplay:10.37,2013-02-26 12:31:00,
2013-02-26 07:36:00,30.5,23.8,30.00,East,92,9.2,13.8,76,0.00,OVC,,0.00,11.0,WeatherDisplay:10.37,2013-02-26 12:36:00,
2013-02-26 07:41:00,30.5,23.5,30.00,East,89,7.4,13.8,75,0.00,OVC,,0.00,12.0,WeatherDisplay:10.37,2013-02-26 12:41:00,
2013-02-26 07:46:00,30.5,23.5,30.00,East,99,11.6,17.3,75,0.00,OVC,,0.00,16.0,WeatherDisplay:10.37,2013-02-26 12:46:00,
2013-02-26 07:51:00,30.6,23.6,30.00,ENE,77,9.9,12.7,75,0.00,OVC,,0.00,21.0,WeatherDisplay:10.37,2013-02-26 12:51:00,
2013-02-26 07:56:00,30.6,23.6,30.00,ENE,74,10.4,15.0,75,0.00,OVC,,0.00,23.0,WeatherDisplay:10.37,2013-02-26 12:56:00,
2013-02-26 08:01:00,30.7,24.0,30.01,ESE,109,6.6,10.4,76,0.00,OVC,,0.00,25.0,WeatherDisplay:10.37,2013-02-26 13:01:00,
2013-02-26 08:06:00,30.6,23.9,30.01,East,93,8.0,12.7,76,0.00,OVC,,0.00,26.0,WeatherDisplay:10.37,2013-02-26 13:06:00,
2013-02-26 08:11:00,30.6,23.9,30.01,ENE,57,6.7,10.4,76,0.00,OVC,,0.00,28.0,WeatherDisplay:10.37,2013-02-26 13:11:00,
2013-02-26 08:16:00,30.6,23.9,30.00,East,82,11.4,15.0,76,0.00,OVC,,0.00,28.0,WeatherDisplay:10.37,2013-02-26 13:16:00,
2013-02-26 08:21:00,30.6,23.9,29.99,ENE,71,9.1,12.7,76,0.00,OVC,,0.00,32.0,WeatherDisplay:10.37,2013-02-26 13:21:00,
2013-02-26 08:26:00,30.7,24.0,29.99,ENE,63,8.0,11.5,76,0.00,OVC,,0.00,28.0,WeatherDisplay:10.37,2013-02-26 13:26:00,
2013-02-26 08:31:00,30.8,24.1,29.99,ENE,59,6.9,13.8,76,0.00,OVC,,0.00,28.0,WeatherDisplay:10.37,2013-02-26 13:31:00,
2013-02-26 08:36:00,30.9,24.2,29.99,NE,46,6.7,11.5,76,0.00,OVC,,0.00,30.0,WeatherDisplay:10.37,2013-02-26 13:36:00,
2013-02-26 08:41:00,30.9,24.2,29.99,ENE,78,9.0,17.3,76,0.00,OVC,,0.00,32.0,WeatherDisplay:10.37,2013-02-26 13:41:00,
2013-02-26 08:46:00,31.0,24.3,30.00,ENE,78,7.3,11.5,76,0.00,OVC,,0.00,33.0,WeatherDisplay:10.37,2013-02-26 13:46:00,
2013-02-26 08:51:00,31.0,24.3,30.00,East,99,8.0,10.4,76,0.00,OVC,,0.00,39.0,WeatherDisplay:10.37,2013-02-26 13:51:00,
2013-02-26 08:56:00,31.1,24.4,29.99,ENE,71,8.0,11.0,76,0.00,OVC,,0.00,46.0,WeatherDisplay:10.37,2013-02-26 13:56:00,
2013-02-26 09:01:00,31.2,24.5,29.99,ENE,77,5.7,5.8,76,0.00,OVC,,0.00,58.0,WeatherDisplay:10.37,2013-02-26 14:01:00,
2013-02-26 09:06:00,31.2,24.5,29.98,East,82,10.1,16.1,76,0.00,OVC,,0.00,67.0,WeatherDisplay:10.37,2013-02-26 14:06:00,
2013-02-26 09:11:00,31.3,24.6,29.98,East,95,10.8,17.3,76,0.00,OVC,,0.00,74.0,WeatherDisplay:10.37,2013-02-26 14:11:00,
2013-02-26 09:16:00,31.4,24.4,29.98,ENE,69,11.5,19.6,75,0.00,OVC,,0.00,95.0,WeatherDisplay:10.37,2013-02-26 14:16:00,
2013-02-26 09:21:00,31.5,24.5,29.97,ENE,59,9.5,15.0,75,0.00,OVC,,0.00,95.0,WeatherDisplay:10.37,2013-02-26 14:21:00,
2013-02-26 09:26:00,31.6,24.6,29.95,ENE,65,13.9,17.3,75,0.00,OVC,,0.00,100.0,WeatherDisplay:10.37,2013-02-26 14:26:00,
2013-02-26 09:31:00,31.6,24.6,29.93,East,90,9.7,16.1,75,0.00,OVC,,0.00,121.0,WeatherDisplay:10.37,2013-02-26 14:31:00,
2013-02-26 09:36:00,31.7,24.7,29.93,NE,49,9.5,13.8,75,0.00,OVC,,0.00,146.0,WeatherDisplay:10.37,2013-02-26 14:36:00,
2013-02-26 09:41:00,31.9,24.9,29.92,East,98,10.4,17.3,75,0.00,OVC,,0.00,171.0,WeatherDisplay:10.37,2013-02-26 14:41:00,
2013-02-26 09:46:00,32.2,24.8,29.93,East,89,10.1,13.0,74,0.00,OVC,,0.00,255.0,WeatherDisplay:10.37,2013-02-26 14:46:00,
2013-02-26 09:51:00,32.7,25.3,29.93,ENE,72,10.5,16.0,74,0.00,OVC,,0.00,214.0,WeatherDisplay:10.37,2013-02-26 14:51:00,
2013-02-26 09:56:00,33.0,25.3,29.93,East,96,8.4,13.8,73,0.00,OVC,,0.00,193.0,WeatherDisplay:10.37,2013-02-26 14:56:00,
2013-02-26 10:01:00,33.2,25.1,29.93,East,88,13.8,20.7,72,0.00,OVC,,0.00,216.0,WeatherDisplay:10.37,2013-02-26 15:01:00,
2013-02-26 10:06:00,33.5,25.4,29.92,East,83,9.9,15.0,72,0.00,OVC,,0.00,255.0,WeatherDisplay:10.37,2013-02-26 15:06:00,
2013-02-26 10:11:00,33.6,25.5,29.92,East,100,10.7,13.8,72,0.00,OVC,,0.00,206.0,WeatherDisplay:10.37,2013-02-26 15:11:00,
2013-02-26 10:16:00,33.6,25.2,29.92,ESE,114,15.0,19.6,71,0.00,OVC,,0.00,207.0,WeatherDisplay:10.37,2013-02-26 15:16:00,
2013-02-26 10:21:00,33.6,25.2,29.92,ENE,67,10.9,19.6,71,0.00,OVC,,0.00,193.0,WeatherDisplay:10.37,2013-02-26 15:21:00,
2013-02-26 10:26:00,33.6,25.5,29.91,ENE,67,13.0,18.4,72,0.00,OVC,,0.00,169.0,WeatherDisplay:10.37,2013-02-26 15:26:00,
2013-02-26 10:31:00,33.4,25.3,29.91,ENE,77,15.5,21.0,72,0.00,OVC,,0.00,130.0,WeatherDisplay:10.37,2013-02-26 15:31:00,
2013-02-26 10:36:00,33.3,25.6,29.90,ENE,71,14.1,21.9,73,0.00,OVC,,0.00,141.0,WeatherDisplay:10.37,2013-02-26 15:36:00,
2013-02-26 10:41:00,33.3,25.6,29.90,ENE,76,8.4,15.0,73,0.00,OVC,,0.00,156.0,WeatherDisplay:10.37,2013-02-26 15:41:00,
2013-02-26 10:46:00,33.3,25.2,29.90,ENE,74,11.8,16.1,72,0.00,OVC,,0.00,165.0,WeatherDisplay:10.37,2013-02-26 15:46:00,
2013-02-26 10:51:00,33.4,25.3,29.89,ENE,66,11.1,17.3,72,0.00,OVC,,0.00,192.0,WeatherDisplay:10.37,2013-02-26 15:51:00,
2013-02-26 10:56:00,33.6,25.9,29.89,ENE,74,8.0,18.4,73,0.00,OVC,,0.00,236.0,WeatherDisplay:10.37,2013-02-26 15:56:00,
2013-02-26 11:01:00,33.9,25.8,29.89,ENE,65,11.2,16.1,72,0.00,OVC,,0.00,253.0,WeatherDisplay:10.37,2013-02-26 16:01:00,
2013-02-26 11:06:00,34.2,26.1,29.89,East,94,8.4,13.8,72,0.00,OVC,,0.00,244.0,WeatherDisplay:10.37,2013-02-26 16:06:00,
2013-02-26 11:11:00,34.2,25.8,29.89,East,89,14.4,20.7,71,0.00,OVC,,0.00,241.0,WeatherDisplay:10.37,2013-02-26 16:11:00,
2013-02-26 11:16:00,34.1,25.7,29.89,ENE,67,14.3,21.9,71,0.00,OVC,,0.00,223.0,WeatherDisplay:10.37,2013-02-26 16:16:00,
2013-02-26 11:21:00,34.1,26.0,29.89,East,91,10.0,15.0,72,0.00,OVC,,0.00,167.0,WeatherDisplay:10.37,2013-02-26 16:21:00,
2013-02-26 11:26:00,34.3,26.2,29.88,NE,51,8.4,12.7,72,0.00,OVC,,0.00,220.0,WeatherDisplay:10.37,2013-02-26 16:26:00,
2013-02-26 11:31:00,34.5,26.4,29.88,ESE,105,7.4,12.7,72,0.00,OVC,,0.00,236.0,WeatherDisplay:10.37,2013-02-26 16:31:00,
2013-02-26 11:36:00,34.4,26.0,29.88,ENE,65,12.6,19.6,71,0.00,OVC,,0.00,114.0,WeatherDisplay:10.37,2013-02-26 16:36:00,
2013-02-26 11:41:00,34.3,26.2,29.88,ENE,58,11.5,17.3,72,0.00,OVC,,0.00,123.0,WeatherDisplay:10.37,2013-02-26 16:41:00,
2013-02-26 11:46:00,34.1,26.7,29.88,East,80,9.4,17.3,74,0.00,OVC,,0.00,104.0,WeatherDisplay:10.37,2013-02-26 16:46:00,
2013-02-26 11:51:00,33.8,27.0,29.88,ESE,107,11.4,20.7,76,0.00,OVC,,0.00,97.0,WeatherDisplay:10.37,2013-02-26 16:51:00,
2013-02-26 11:56:00,33.5,27.7,29.87,ENE,77,7.9,11.0,79,0.00,OVC,,0.00,93.0,WeatherDisplay:10.37,2013-02-26 16:56:00,
2013-02-26 12:01:00,33.3,27.8,29.87,East,82,13.7,17.3,80,0.01,-RA,,0.01,74.0,WeatherDisplay:10.37,2013-02-26 17:01:00,
2013-02-26 12:06:00,33.1,27.9,29.86,East,98,10.6,16.0,81,0.01,-RA,,0.01,70.0,WeatherDisplay:10.37,2013-02-26 17:06:00,
2013-02-26 12:11:00,33.0,28.1,29.86,East,84,9.8,15.0,82,0.01,-RA,,0.01,65.0,WeatherDisplay:10.37,2013-02-26 17:11:00,
2013-02-26 12:16:00,33.0,27.8,29.85,East,97,12.0,17.3,81,0.02,-RA,,0.02,90.0,WeatherDisplay:10.37,2013-02-26 17:16:00,
2013-02-26 12:21:00,33.1,28.2,29.84,East,89,9.3,16.1,82,0.02,-RA,,0.02,113.0,WeatherDisplay:10.37,2013-02-26 17:21:00,
2013-02-26 12:27:00,33.2,28.3,29.84,East,101,7.8,11.5,82,0.02,-RA,,0.02,127.0,WeatherDisplay:10.37,2013-02-26 17:27:00,
2013-02-26 12:32:00,33.3,28.7,29.84,East,88,9.7,13.8,83,0.02,-RA,,0.02,130.0,WeatherDisplay:10.37,2013-02-26 17:32:00,
2013-02-26 12:37:00,33.2,28.6,29.84,East,79,8.7,19.6,83,0.02,-RA,,0.02,132.0,WeatherDisplay:10.37,2013-02-26 17:37:00,
2013-02-26 12:42:00,33.2,28.6,29.83,ENE,60,7.1,12.7,83,0.02,-RA,,0.02,104.0,WeatherDisplay:10.37,2013-02-26 17:42:00,
2013-02-26 12:47:00,33.2,28.9,29.83,NE,53,9.3,15.0,84,0.03,-RA,,0.03,113.0,WeatherDisplay:10.37,2013-02-26 17:47:00,
2013-02-26 12:52:00,33.1,28.8,29.82,East,90,11.9,16.1,84,0.03,-RA,,0.04,137.0,WeatherDisplay:10.37,2013-02-26 17:52:00,
2013-02-26 12:57:00,33.0,29.3,29.81,East,79,9.8,11.5,86,0.04,-RA,,0.04,146.0,WeatherDisplay:10.37,2013-02-26 17:57:00,
2013-02-26 13:02:00,33.0,29.3,29.81,NE,36,8.8,13.8,86,0.03,-RA,,0.04,114.0,WeatherDisplay:10.37,2013-02-26 18:02:00,
2013-02-26 13:07:00,33.0,29.3,29.80,East,94,7.4,11.5,86,0.03,-RA,,0.05,84.0,WeatherDisplay:10.37,2013-02-26 18:07:00,
2013-02-26 13:12:00,32.9,29.5,29.79,East,79,8.4,12.7,87,0.04,-RA,,0.05,70.0,WeatherDisplay:10.37,2013-02-26 18:12:00,
2013-02-26 13:17:00,32.7,29.3,29.79,East,85,11.2,17.3,87,0.04,-RA,,0.06,46.0,WeatherDisplay:10.37,2013-02-26 18:17:00,
2013-02-26 13:22:00,32.7,29.3,29.78,ENE,59,10.8,19.6,87,0.04,-RA,,0.06,60.0,WeatherDisplay:10.37,2013-02-26 18:22:00,
2013-02-26 13:27:00,32.6,29.2,29.78,ENE,77,13.7,18.4,87,0.04,-RA,,0.07,79.0,WeatherDisplay:10.37,2013-02-26 18:27:00,
2013-02-26 13:32:00,32.6,29.4,29.77,East,88,9.6,16.0,88,0.05,-RA,,0.07,98.0,WeatherDisplay:10.37,2013-02-26 18:32:00,
2013-02-26 13:37:00,32.7,29.5,29.77,East,83,9.9,13.8,88,0.05,-RA,,0.08,125.0,WeatherDisplay:10.37,2013-02-26 18:37:00,
2013-02-26 13:42:00,32.7,29.3,29.76,East,80,14.4,18.4,87,0.06,-RA,,0.08,142.0,WeatherDisplay:10.37,2013-02-26 18:42:00,
2013-02-26 13:47:00,32.8,29.4,29.76,East,86,11.1,18.4,87,0.05,-RA,,0.08,144.0,WeatherDisplay:10.37,2013-02-26 18:47:00,
2013-02-26 13:52:00,32.8,29.6,29.75,East,84,11.7,17.3,88,0.04,-RA,,0.08,116.0,WeatherDisplay:10.37,2013-02-26 18:52:00,
2013-02-26 13:57:00,32.9,29.5,29.74,East,88,16.0,21.9,87,0.04,-RA,,0.08,130.0,WeatherDisplay:10.37,2013-02-26 18:57:00,
2013-02-26 14:02:00,33.0,29.6,29.74,East,88,10.4,19.6,87,0.04,-RA,,0.08,163.0,WeatherDisplay:10.37,2013-02-26 19:02:00,
2013-02-26 14:07:00,33.1,29.4,29.73,ENE,61,14.2,19.6,86,0.03,-RA,,0.08,137.0,WeatherDisplay:10.37,2013-02-26 19:07:00,
2013-02-26 14:12:00,33.2,29.8,29.73,East,82,13.3,16.1,87,0.04,-RA,,0.09,178.0,WeatherDisplay:10.37,2013-02-26 19:12:00,
2013-02-26 14:17:00,33.4,29.9,29.73,NE,38,11.3,20.7,87,0.03,-RA,,0.09,125.0,WeatherDisplay:10.37,2013-02-26 19:17:00,
2013-02-26 14:22:00,33.3,29.8,29.73,NE,48,13.1,19.6,87,0.03,-RA,,0.09,77.0,WeatherDisplay:10.37,2013-02-26 19:22:00,
2013-02-26 14:27:00,33.3,29.8,29.73,East,84,10.8,16.1,87,0.03,-RA,,0.10,67.0,WeatherDisplay:10.37,2013-02-26 19:27:00,
2013-02-26 14:32:00,33.2,30.0,29.73,ENE,77,11.2,11.5,88,0.03,-RA,,0.11,39.0,WeatherDisplay:10.37,2013-02-26 19:32:00,
2013-02-26 14:37:00,33.0,29.8,29.72,ENE,75,13.2,23.0,88,0.04,-RA,,0.12,39.0,WeatherDisplay:10.37,2013-02-26 19:37:00,
2013-02-26 14:42:00,32.9,30.0,29.72,East,94,10.2,16.1,89,0.05,-RA,,0.13,35.0,WeatherDisplay:10.37,2013-02-26 19:42:00,
2013-02-26 14:47:00,32.8,29.9,29.72,ENE,57,7.0,13.8,89,0.06,-RA,,0.14,33.0,WeatherDisplay:10.37,2013-02-26 19:47:00,
2013-02-26 14:52:00,32.8,30.2,29.71,East,96,8.7,16.1,90,0.08,-RA,,0.16,32.0,WeatherDisplay:10.37,2013-02-26 19:52:00,
2013-02-26 14:57:00,32.8,30.2,29.71,East,81,7.9,17.3,90,0.09,-RA,,0.17,42.0,WeatherDisplay:10.37,2013-02-26 19:57:00,
2013-02-26 15:02:00,32.8,29.9,29.72,ENE,76,12.7,16.1,89,0.11,-RA,,0.19,30.0,WeatherDisplay:10.37,2013-02-26 20:02:00,
2013-02-26 15:07:00,32.7,30.1,29.73,ENE,66,9.3,12.7,90,0.12,-RA,,0.20,26.0,WeatherDisplay:10.37,2013-02-26 20:07:00,
2013-02-26 15:12:00,32.7,30.4,29.73,ENE,78,7.6,13.8,91,0.13,RA,,0.22,28.0,WeatherDisplay:10.37,2013-02-26 20:12:00,
2013-02-26 15:17:00,32.8,30.5,29.71,East,89,9.9,13.8,91,0.15,RA,,0.24,47.0,WeatherDisplay:10.37,2013-02-26 20:17:00,
2013-02-26 15:22:00,32.8,30.5,29.71,ENE,76,6.4,10.0,91,0.16,RA,,0.26,37.0,WeatherDisplay:10.37,2013-02-26 20:22:00,
2013-02-26 15:27:00,32.8,30.5,29.70,East,86,8.3,15.0,91,0.17,RA,,0.27,21.0,WeatherDisplay:10.37,2013-02-26 20:27:00,
2013-02-26 15:32:00,32.7,30.4,29.71,East,92,10.9,16.1,91,0.18,RA,,0.28,26.0,WeatherDisplay:10.37,2013-02-26 20:32:00,
2013-02-26 15:37:00,32.8,30.5,29.73,ESE,117,7.4,18.4,91,0.17,RA,,0.30,16.0,WeatherDisplay:10.37,2013-02-26 20:37:00,
2013-02-26 15:42:00,32.7,30.4,29.72,ENE,75,6.8,16.1,91,0.18,RA,,0.31,21.0,WeatherDisplay:10.37,2013-02-26 20:42:00,
2013-02-26 15:47:00,32.7,30.6,29.72,East,92,8.5,17.0,92,0.19,RA,,0.34,21.0,WeatherDisplay:10.37,2013-02-26 20:47:00,
2013-02-26 15:52:00,32.7,30.6,29.71,East,82,14.1,19.6,92,0.20,RA,,0.36,26.0,WeatherDisplay:10.37,2013-02-26 20:52:00,
2013-02-26 15:57:00,32.7,30.6,29.71,East,88,12.8,17.3,92,0.22,RA,,0.39,25.0,WeatherDisplay:10.37,2013-02-26 20:57:00,
2013-02-26 16:02:00,32.7,30.6,29.71,East,88,10.8,16.1,92,0.22,RA,,0.41,21.0,WeatherDisplay:10.37,2013-02-26 21:02:00,
2013-02-26 16:07:00,32.6,30.5,29.71,East,81,10.2,15.0,92,0.24,RA,,0.44,21.0,WeatherDisplay:10.37,2013-02-26 21:07:00,
2013-02-26 16:12:00,32.6,30.5,29.71,ESE,106,9.5,15.0,92,0.25,RA,,0.47,21.0,WeatherDisplay:10.37,2013-02-26 21:12:00,
2013-02-26 16:17:00,32.7,30.9,29.71,East,80,10.5,19.6,93,0.25,RA,,0.50,18.0,WeatherDisplay:10.37,2013-02-26 21:17:00,
2013-02-26 16:22:00,32.8,31.0,29.70,East,97,13.0,19.6,93,0.26, +RA,,0.51,19.0,WeatherDisplay:10.37,2013-02-26 21:22:00,
2013-02-26 16:27:00,32.8,31.0,29.70,East,91,12.6,21.0,93,0.25, +RA,,0.52,21.0,WeatherDisplay:10.37,2013-02-26 21:27:00,
2013-02-26 16:32:00,32.8,31.0,29.70,East,85,11.1,15.0,93,0.25, +RA,,0.53,21.0,WeatherDisplay:10.37,2013-02-26 21:32:00,
2013-02-26 16:37:00,32.8,31.0,29.69,ESE,106,10.1,19.6,93,0.25, +RA,,0.54,18.0,WeatherDisplay:10.37,2013-02-26 21:37:00,
2013-02-26 16:42:00,32.9,31.1,29.69,ESE,104,14.4,17.3,93,0.23, +RA,,0.54,12.0,WeatherDisplay:10.37,2013-02-26 21:42:00,
2013-02-26 16:47:00,32.9,31.1,29.68,ESE,121,12.0,19.6,93,0.21, +RA,,0.54,16.0,WeatherDisplay:10.37,2013-02-26 21:47:00,
2013-02-26 16:52:00,32.9,31.1,29.68,ENE,74,7.9,12.0,93,0.18, +RA,,0.54,12.0,WeatherDisplay:10.37,2013-02-26 21:52:00,
2013-02-26 16:58:00,32.9,31.1,29.68,East,88,9.4,19.6,93,0.15, +RA,,0.54,9.0,WeatherDisplay:10.37,2013-02-26 21:58:00,
2013-02-26 17:03:00,32.9,31.1,29.67,East,85,12.2,19.0,93,0.13,OVC,,0.54,11.0,WeatherDisplay:10.37,2013-02-26 22:03:00,
2013-02-26 17:08:00,32.9,31.4,29.67,ENE,73,9.9,19.6,94,0.10,OVC,,0.54,9.0,WeatherDisplay:10.37,2013-02-26 22:08:00,
2013-02-26 17:13:00,32.7,31.2,29.66,East,88,11.7,19.6,94,0.07,OVC,,0.54,5.0,WeatherDisplay:10.37,2013-02-26 22:13:00,
2013-02-26 17:18:00,32.6,31.1,29.66,ESE,118,10.2,11.5,94,0.05,OVC,,0.54,5.0,WeatherDisplay:10.37,2013-02-26 22:18:00,
2013-02-26 17:23:00,32.6,31.3,29.66,ENE,70,14.4,17.3,95,0.03,-SN,,0.54,7.0,WeatherDisplay:10.37,2013-02-26 22:23:00,
2013-02-26 17:28:00,32.6,31.3,29.66,East,93,8.9,11.5,95,0.02,-SN,,0.54,9.0,WeatherDisplay:10.37,2013-02-26 22:28:00,
2013-02-26 17:33:00,32.6,31.3,29.65,East,80,9.2,11.0,95,0.01,-SN,,0.54,9.0,WeatherDisplay:10.37,2013-02-26 22:33:00,
2013-02-26 17:38:00,32.6,31.3,29.65,ENE,74,9.0,15.0,95,0.00,-SN,,0.54,9.0,WeatherDisplay:10.37,2013-02-26 22:38:00,
2013-02-26 17:43:00,32.6,31.3,29.65,ENE,78,9.8,12.7,95,0.00,-SN,,0.54,5.0,WeatherDisplay:10.37,2013-02-26 22:43:00,
2013-02-26 17:48:00,32.6,31.3,29.65,ESE,102,9.3,23.0,95,0.00,-SN,,0.54,0.0,WeatherDisplay:10.37,2013-02-26 22:48:00,
2013-02-26 17:53:00,32.6,31.3,29.65,East,94,13.2,18.4,95,0.00,-SN,,0.55,0.0,WeatherDisplay:10.37,2013-02-26 22:53:00,
2013-02-26 17:58:00,32.7,31.4,29.65,East,101,10.1,12.7,95,0.01,-SN,,0.55,0.0,WeatherDisplay:10.37,2013-02-26 22:58:00,
2013-02-26 18:03:00,32.7,31.4,29.65,East,84,8.2,13.8,95,0.01,-SN,,0.55,0.0,WeatherDisplay:10.37,2013-02-26 23:03:00,
2013-02-26 18:08:00,32.8,31.5,29.64,ENE,69,12.3,18.4,95,0.01,-SN,,0.55,0.0,WeatherDisplay:10.37,2013-02-26 23:08:00,
2013-02-26 18:13:00,32.8,31.5,29.64,ESE,107,8.2,13.8,95,0.01,-SN,,0.55,0.0,WeatherDisplay:10.37,2013-02-26 23:13:00,
2013-02-26 18:18:00,32.8,31.5,29.65,East,86,8.3,16.1,95,0.01,-SN,,0.55,0.0,WeatherDisplay:10.37,2013-02-26 23:18:00,
2013-02-26 18:23:00,32.8,31.5,29.64,ENE,65,9.4,18.4,95,0.01,-SN,,0.55,0.0,WeatherDisplay:10.37,2013-02-26 23:23:00,
2013-02-26 18:28:00,32.8,31.5,29.64,East,90,8.3,16.1,95,0.01,-SN,,0.55,0.0,WeatherDisplay:10.37,2013-02-26 23:28:00,
2013-02-26 18:33:00,32.8,31.5,29.64,East,84,9.7,11.5,95,0.01,-SN,,0.55,0.0,WeatherDisplay:10.37,2013-02-26 23:33:00,
2013-02-26 18:38:00,32.8,31.5,29.64,East,83,6.6,13.0,95,0.01,-SN,,0.55,0.0,WeatherDisplay:10.37,2013-02-26 23:38:00,
2013-02-26 18:43:00,32.8,31.5,29.64,East,86,7.4,13.8,95,0.02,-SN,,0.56,0.0,WeatherDisplay:10.37,2013-02-26 23:43:00,
2013-02-26 18:48:00,32.8,31.5,29.64,East,81,8.7,11.0,95,0.02,-SN,,0.56,0.0,WeatherDisplay:10.37,2013-02-26 23:48:00,
2013-02-26 18:53:00,32.9,31.6,29.64,NE,56,8.4,10.4,95,0.02,-SN,,0.56,0.0,WeatherDisplay:10.37,2013-02-26 23:53:00,
2013-02-26 18:58:00,32.9,31.6,29.64,ENE,65,7.6,12.7,95,0.01,-SN,,0.56,0.0,WeatherDisplay:10.37,2013-02-26 23:58:00,
2013-02-26 19:03:00,32.8,31.5,29.64,ESE,107,7.1,12.7,95,0.02,-SN,,0.57,0.0,WeatherDisplay:10.37,2013-02-27 00:03:00,
2013-02-26 19:08:00,32.9,31.9,29.64,ENE,72,8.8,11.5,96,0.02,-SN,,0.57,0.0,WeatherDisplay:10.37,2013-02-27 00:08:00,
2013-02-26 19:13:00,32.8,31.5,29.64,NE,51,8.1,15.0,95,0.02,-SN,,0.57,0.0,WeatherDisplay:10.37,2013-02-27 00:13:00,
2013-02-26 19:18:00,32.8,31.5,29.64,NE,40,9.2,11.5,95,0.02,-SN,,0.57,0.0,WeatherDisplay:10.37,2013-02-27 00:18:00,
2013-02-26 19:23:00,32.7,31.4,29.64,ENE,66,6.7,9.2,95,0.03,-SN,,0.58,0.0,WeatherDisplay:10.37,2013-02-27 00:23:00,
2013-02-26 19:28:00,32.6,31.6,29.64,East,80,6.1,9.2,96,0.03,-SN,,0.58,0.0,WeatherDisplay:10.37,2013-02-27 00:28:00,
2013-02-26 19:33:00,32.6,31.6,29.63,ENE,68,5.9,10.4,96,0.03,-SN,,0.58,0.0,WeatherDisplay:10.37,2013-02-27 00:33:00,
2013-02-26 19:38:00,32.5,31.5,29.63,ENE,73,6.8,9.2,96,0.03,-SN,,0.58,0.0,WeatherDisplay:10.37,2013-02-27 00:38:00,
2013-02-26 19:43:00,32.6,31.6,29.63,ENE,69,6.8,11.0,96,0.02,-SN,,0.58,0.0,WeatherDisplay:10.37,2013-02-27 00:43:00,
2013-02-26 19:48:00,32.6,31.6,29.63,East,94,7.8,10.4,96,0.02,-SN,,0.58,0.0,WeatherDisplay:10.37,2013-02-27 00:48:00,
2013-02-26 19:53:00,32.6,31.6,29.63,East,86,6.8,11.5,96,0.02,-SN,,0.58,0.0,WeatherDisplay:10.37,2013-02-27 00:53:00,
2013-02-26 19:58:00,32.5,31.5,29.63,ENE,75,8.3,14.0,96,0.02,-SN,,0.58,0.0,WeatherDisplay:10.37,2013-02-27 00:58:00,
2013-02-26 20:03:00,32.5,31.5,29.63,East,91,5.1,7.0,96,0.01,-SN,,0.58,0.0,WeatherDisplay:10.37,2013-02-27 01:03:00,
2013-02-26 20:08:00,32.5,31.5,29.63,East,83,7.8,11.5,96,0.01,-SN,,0.58,0.0,WeatherDisplay:10.37,2013-02-27 01:08:00,
2013-02-26 20:13:00,32.5,31.5,29.62,East,99,4.9,8.0,96,0.01,-SN,,0.58,0.0,WeatherDisplay:10.37,2013-02-27 01:13:00,
2013-02-26 20:18:00,32.4,31.4,29.62,ENE,68,7.4,10.4,96,0.01,-SN,,0.58,0.0,WeatherDisplay:10.37,2013-02-27 01:18:00,
2013-02-26 20:23:00,32.4,31.4,29.62,ENE,76,8.7,11.5,96,0.00,-SN,,0.58,0.0,WeatherDisplay:10.37,2013-02-27 01:23:00,
2013-02-26 20:28:00,32.4,31.4,29.62,ENE,78,8.8,12.7,96,0.00,-SN,,0.58,0.0,WeatherDisplay:10.37,2013-02-27 01:28:00,
2013-02-26 20:33:00,32.4,31.4,29.62,East,83,7.3,10.4,96,0.01,-SN,,0.59,0.0,WeatherDisplay:10.37,2013-02-27 01:33:00,
2013-02-26 20:38:00,32.4,31.4,29.61,ENE,76,10.2,12.7,96,0.01,-SN,,0.59,0.0,WeatherDisplay:10.37,2013-02-27 01:38:00,
2013-02-26 20:43:00,32.4,31.4,29.61,ESE,102,7.7,9.2,96,0.01,-SN,,0.59,0.0,WeatherDisplay:10.37,2013-02-27 01:43:00,
2013-02-26 20:48:00,32.4,31.4,29.61,East,80,7.0,9.2,96,0.01,-SN,,0.59,0.0,WeatherDisplay:10.37,2013-02-27 01:48:00,
2013-02-26 20:53:00,32.4,31.4,29.61,East,100,9.0,13.8,96,0.01,-SN,,0.59,0.0,WeatherDisplay:10.37,2013-02-27 01:53:00,
2013-02-26 20:58:00,32.4,31.4,29.60,ENE,77,5.0,9.2,96,0.01,-SN,,0.59,0.0,WeatherDisplay:10.37,2013-02-27 01:58:00,
2013-02-26 21:03:00,32.4,31.4,29.60,East,84,7.2,10.4,96,0.01,-SN,,0.59,0.0,WeatherDisplay:10.37,2013-02-27 02:03:00,
2013-02-26 21:08:00,32.4,31.4,29.60,ESE,103,6.3,13.0,96,0.01,-SN,,0.59,0.0,WeatherDisplay:10.37,2013-02-27 02:08:00,
2013-02-26 21:13:00,32.4,31.4,29.60,ESE,102,7.6,11.5,96,0.01,-SN,,0.59,0.0,WeatherDisplay:10.37,2013-02-27 02:13:00,
2013-02-26 21:18:00,32.4,31.4,29.60,ENE,59,7.5,9.2,96,0.01,-SN,,0.59,0.0,WeatherDisplay:10.37,2013-02-27 02:18:00,
2013-02-26 21:23:00,32.4,31.4,29.60,East,80,7.4,10.4,96,0.01,-SN,,0.59,0.0,WeatherDisplay:10.37,2013-02-27 02:23:00,
2013-02-26 21:28:00,32.4,31.4,29.60,ENE,68,6.2,8.0,96,0.01,-SN,,0.59,0.0,WeatherDisplay:10.37,2013-02-27 02:28:00,
2013-02-26 21:33:00,32.4,31.4,29.60,ENE,66,6.3,9.2,96,0.00,-SN,,0.59,0.0,WeatherDisplay:10.37,2013-02-27 02:33:00,
2013-02-26 21:38:00,32.4,31.4,29.59,East,86,6.3,9.2,96,0.00,-SN,,0.59,0.0,WeatherDisplay:10.37,2013-02-27 02:38:00,
2013-02-26 21:43:00,32.4,31.4,29.59,East,90,5.3,8.1,96,0.00,-SN,,0.59,0.0,WeatherDisplay:10.37,2013-02-27 02:43:00,
2013-02-26 21:48:00,32.5,31.5,29.59,ENE,71,7.4,8.1,96,0.00,-SN,,0.59,0.0,WeatherDisplay:10.37,2013-02-27 02:48:00,
2013-02-26 21:53:00,32.6,31.6,29.58,ENE,78,6.9,9.2,96,0.00,-SN,,0.59,0.0,WeatherDisplay:10.37,2013-02-27 02:53:00,
2013-02-26 21:58:00,32.7,31.7,29.58,East,80,6.9,9.2,96,0.00,-SN,,0.59,0.0,WeatherDisplay:10.37,2013-02-27 02:58:00,
2013-02-26 22:03:00,32.8,31.8,29.57,ENE,72,5.3,9.2,96,0.00,-SN,,0.59,0.0,WeatherDisplay:10.37,2013-02-27 03:03:00,
2013-02-26 22:08:00,32.8,31.8,29.57,ENE,62,6.6,9.2,96,0.00,-SN,,0.59,0.0,WeatherDisplay:10.37,2013-02-27 03:08:00,
2013-02-26 22:13:00,32.8,31.8,29.57,East,91,3.2,5.8,96,0.01,-SN,,0.60,0.0,WeatherDisplay:10.37,2013-02-27 03:13:00,
2013-02-26 22:18:00,32.8,31.8,29.57,East,95,5.5,9.2,96,0.01,-SN,,0.60,0.0,WeatherDisplay:10.37,2013-02-27 03:18:00,
2013-02-26 22:23:00,32.9,31.9,29.57,ENE,76,6.7,10.4,96,0.01,-SN,,0.60,0.0,WeatherDisplay:10.37,2013-02-27 03:23:00,
2013-02-26 22:28:00,32.9,31.9,29.57,East,82,7.7,10.4,96,0.01,-SN,,0.60,0.0,WeatherDisplay:10.37,2013-02-27 03:28:00,
2013-02-26 22:33:00,32.9,31.9,29.57,ENE,76,6.9,9.2,96,0.01,-SN,,0.60,0.0,WeatherDisplay:10.37,2013-02-27 03:33:00,
2013-02-26 22:38:00,32.9,31.9,29.57,East,85,7.3,13.8,96,0.01,-SN,,0.60,0.0,WeatherDisplay:10.37,2013-02-27 03:38:00,
2013-02-26 22:43:00,32.8,31.8,29.56,East,90,6.4,8.1,96,0.01,-SN,,0.60,0.0,WeatherDisplay:10.37,2013-02-27 03:43:00,
2013-02-26 22:48:00,32.8,31.8,29.56,East,95,9.8,11.5,96,0.01,-SN,,0.60,0.0,WeatherDisplay:10.37,2013-02-27 03:48:00,
2013-02-26 22:53:00,32.9,31.9,29.56,East,91,6.3,10.4,96,0.01,-SN,,0.60,0.0,WeatherDisplay:10.37,2013-02-27 03:53:00,
2013-02-26 22:58:00,32.8,31.8,29.56,ENE,73,3.1,6.9,96,0.02,-SN,,0.61,0.0,WeatherDisplay:10.37,2013-02-27 03:58:00,
2013-02-26 23:03:00,32.8,31.8,29.56,East,88,6.4,9.0,96,0.02,-SN,,0.61,0.0,WeatherDisplay:10.37,2013-02-27 04:03:00,
2013-02-26 23:08:00,32.8,31.8,29.55,ENE,64,6.0,10.4,96,0.02,-SN,,0.61,0.0,WeatherDisplay:10.37,2013-02-27 04:08:00,
2013-02-26 23:13:00,32.8,31.8,29.55,ESE,119,6.5,11.5,96,0.01,-SN,,0.61,0.0,WeatherDisplay:10.37,2013-02-27 04:13:00,
2013-02-26 23:18:00,32.8,31.8,29.55,East,82,11.9,13.8,96,0.01,-SN,,0.61,0.0,WeatherDisplay:10.37,2013-02-27 04:18:00,
2013-02-26 23:23:00,32.9,31.9,29.55,East,85,10.9,12.7,96,0.02,-SN,,0.62,0.0,WeatherDisplay:10.37,2013-02-27 04:23:00,
2013-02-26 23:28:00,32.9,31.9,29.55,East,84,3.6,11.5,96,0.02,-SN,,0.62,0.0,WeatherDisplay:10.37,2013-02-27 04:28:00,
2013-02-26 23:33:00,32.9,31.9,29.55,ENE,70,5.9,9.2,96,0.02,-SN,,0.62,0.0,WeatherDisplay:10.37,2013-02-27 04:33:00,
2013-02-26 23:38:00,32.8,31.8,29.54,East,90,6.4,9.2,96,0.02,-SN,,0.62,0.0,WeatherDisplay:10.37,2013-02-27 04:38:00,
2013-02-26 23:43:00,32.8,31.8,29.54,East,82,5.2,10.4,96,0.02,-SN,,0.62,0.0,WeatherDisplay:10.37,2013-02-27 04:43:00,
2013-02-26 23:49:00,32.8,31.8,29.54,ENE,71,5.7,10.4,96,0.02,-SN,,0.62,0.0,WeatherDisplay:10.37,2013-02-27 04:49:00,
2013-02-26 23:54:00,32.8,31.8,29.54,ENE,65,6.3,11.5,96,0.02,-SN,,0.63,0.0,WeatherDisplay:10.37,2013-02-27 04:54:00,
2013-02-26 23:59:00,32.8,31.8,29.54,East,96,5.1,6.9,96,0.02,-SN,,0.63,0.0,WeatherDisplay:10.37,2013-02-27 04:59:00,